Terminal Aerodrome Forecast
Issued by NWS Brownsville, TX

Home | Current Version | Previous Version | Text Only | Print | Product List | Glossary On
Versions: 1 2 3 4 5 6 7 8 9 10 11 12 13 14 15 16 17 18 19 20 21
000
FTUS44 KBRO 271124
TAFHRL
TAF
KHRL 271124Z 2712/2812 05010KT P6SM BKN015
     FM271400 05009KT P6SM SCT015 BKN025
     FM271600 09012G18KT P6SM SCT030 SCT250
     FM280300 14010G18KT P6SM BKN015
     FM280600 15015G20KT 6SM BR OVC009=

USA.gov is the U.S. government's official web portal to all federal, state and local government web resources and services.